createdAt,value
2022-11-23T00:00:16.949Z,99041.17
2022-11-23T00:02:43.670Z,99041.83
2022-11-23T00:05:10.625Z,99043.64
2022-11-23T00:07:37.401Z,99046.72
2022-11-23T00:10:04.305Z,99045.80
2022-11-23T00:12:31.023Z,99046.52
2022-11-23T00:14:57.716Z,99050.38
2022-11-23T00:17:24.446Z,99051.12
2022-11-23T00:19:51.189Z,99050.80
2022-11-23T00:22:17.930Z,99047.11
2022-11-23T00:24:44.670Z,99046.89
2022-11-23T00:27:11.409Z,99047.48
2022-11-23T00:29:38.123Z,99053.02
2022-11-23T00:32:05.593Z,99056.42
2022-11-23T00:34:33.204Z,99051.85
2022-11-23T00:36:59.954Z,99055.36
2022-11-23T00:39:26.670Z,99053.47
2022-11-23T00:41:53.452Z,99053.90
2022-11-23T00:44:20.120Z,99050.06
2022-11-23T00:46:46.830Z,99050.40
2022-11-23T00:49:13.572Z,99051.41
2022-11-23T00:51:40.574Z,99055.68
2022-11-23T00:54:08.617Z,99057.91
2022-11-23T00:56:35.823Z,99056.05
2022-11-23T00:59:02.879Z,99054.67
2022-11-23T01:01:33.791Z,99055.04
2022-11-23T01:04:01.584Z,99049.77
2022-11-23T01:06:35.584Z,99050.12
2022-11-23T01:09:05.088Z,99051.16
2022-11-23T01:11:32.262Z,99058.56
2022-11-23T01:14:00.108Z,99061.27
2022-11-23T01:16:37.697Z,99058.39
2022-11-23T01:19:06.400Z,99065.64
2022-11-23T01:21:33.570Z,99070.80
2022-11-23T01:24:00.604Z,99069.61
2022-11-23T01:26:27.354Z,99072.60
2022-11-23T01:28:57.515Z,99071.95
2022-11-23T01:31:24.594Z,99069.11
2022-11-23T01:33:58.672Z,99072.86
2022-11-23T01:36:27.385Z,99075.45
2022-11-23T01:38:54.273Z,99086.65
2022-11-23T01:41:23.372Z,99095.48
2022-11-23T01:43:50.361Z,99091.98
2022-11-23T01:46:17.145Z,99088.10
2022-11-23T01:48:50.019Z,99080.90
2022-11-23T01:51:19.220Z,99078.27
2022-11-23T01:53:46.529Z,99077.86
2022-11-23T01:56:16.380Z,99086.66
2022-11-23T01:58:44.576Z,99090.92
2022-11-23T02:01:11.828Z,99089.09
2022-11-23T02:03:38.624Z,99087.27
2022-11-23T02:06:14.441Z,99084.07
2022-11-23T02:08:41.653Z,99083.63
2022-11-23T02:11:08.405Z,99089.32
2022-11-23T02:13:35.135Z,99092.88
2022-11-23T02:16:02.504Z,99098.60
2022-11-23T02:18:30.518Z,99097.73
2022-11-23T02:20:58.289Z,99098.90
2022-11-23T02:23:28.132Z,99092.80
2022-11-23T02:25:59.473Z,99093.87
2022-11-23T02:28:29.325Z,99086.73
2022-11-23T02:30:56.101Z,99098.03
2022-11-23T02:33:23.542Z,99094.27
2022-11-23T02:35:54.768Z,99100.14
2022-11-23T02:38:23.051Z,99104.62
2022-11-23T02:40:49.754Z,99100.90
2022-11-23T02:43:16.550Z,99098.45
2022-11-23T02:45:50.001Z,99103.94
2022-11-23T02:48:17.535Z,99111.60
2022-11-23T02:50:44.281Z,99114.91
2022-11-23T02:53:11.187Z,99116.39
2022-11-23T02:55:37.947Z,99114.16
2022-11-23T02:58:04.980Z,99112.02
2022-11-23T03:00:31.997Z,99112.77
2022-11-23T03:02:59.973Z,99117.11
2022-11-23T03:05:26.964Z,99123.11
2022-11-23T03:07:53.876Z,99118.02
2022-11-23T03:10:20.949Z,99119.76
2022-11-23T03:12:49.308Z,99120.67
2022-11-23T03:15:16.127Z,99118.68
2022-11-23T03:17:42.927Z,99118.55
2022-11-23T03:20:11.655Z,99117.89
2022-11-23T03:22:40.001Z,99119.38
2022-11-23T03:25:10.799Z,99118.83
2022-11-23T03:27:39.190Z,99115.84
2022-11-23T03:30:07.543Z,99118.39
2022-11-23T03:32:35.501Z,99118.95
2022-11-23T03:35:03.613Z,99114.79
2022-11-23T03:37:30.892Z,99118.81
2022-11-23T03:39:57.942Z,99120.97
2022-11-23T03:42:47.616Z,99122.09
2022-11-23T03:45:14.389Z,99123.11
2022-11-23T03:47:41.094Z,99120.98
2022-11-23T03:50:08.316Z,99124.80
2022-11-23T03:52:36.757Z,99129.36
2022-11-23T03:55:03.730Z,99129.39
2022-11-23T03:57:30.470Z,99119.67
2022-11-23T03:59:58.688Z,99121.45
2022-11-23T04:02:25.426Z,99119.70
2022-11-23T04:05:01.304Z,99118.95
2022-11-23T04:07:48.205Z,99118.69
2022-11-23T04:10:18.793Z,99119.63
2022-11-23T04:13:05.794Z,99122.09
2022-11-23T04:15:32.580Z,99136.16
2022-11-23T04:17:59.444Z,99134.30
2022-11-23T04:20:26.254Z,99128.55
2022-11-23T04:22:52.963Z,99128.74
2022-11-23T04:25:19.688Z,99125.09
2022-11-23T04:27:47.338Z,99126.41
2022-11-23T04:30:14.939Z,99131.45
2022-11-23T04:32:45.006Z,99132.45
2022-11-23T04:35:12.252Z,99132.63
2022-11-23T04:37:40.122Z,99136.90
2022-11-23T04:40:09.389Z,99130.35
2022-11-23T04:42:49.263Z,99128.89
2022-11-23T04:45:16.071Z,99126.60
2022-11-23T04:47:45.404Z,99133.22
2022-11-23T04:50:13.413Z,99132.70
2022-11-23T04:52:40.763Z,99137.07
2022-11-23T04:55:11.783Z,99151.06
2022-11-23T04:57:45.385Z,99152.93
2022-11-23T05:00:12.985Z,99154.07
2022-11-23T05:02:40.655Z,99152.51
2022-11-23T05:05:14.689Z,99145.95
2022-11-23T05:07:41.633Z,99145.23
2022-11-23T05:10:09.474Z,99143.45
2022-11-23T05:12:36.715Z,99136.52
2022-11-23T05:15:04.767Z,99136.17
2022-11-23T05:17:34.953Z,99141.51
2022-11-23T05:20:02.201Z,99143.30
2022-11-23T05:22:30.207Z,99142.07
2022-11-23T05:24:56.940Z,99144.30
2022-11-23T05:27:24.402Z,99144.07
2022-11-23T05:29:51.101Z,99147.38
2022-11-23T05:32:17.977Z,99149.16
2022-11-23T05:34:44.786Z,99155.41
2022-11-23T05:37:12.890Z,99158.40
2022-11-23T05:39:47.479Z,99165.30
2022-11-23T05:42:14.703Z,99172.39
2022-11-23T05:44:42.238Z,99173.08
2022-11-23T05:47:13.816Z,99173.89
2022-11-23T05:49:41.060Z,99178.83
2022-11-23T05:52:07.889Z,99180.21
2022-11-23T05:54:35.843Z,99187.45
2022-11-23T05:57:13.179Z,99183.70
2022-11-23T05:59:41.271Z,99182.32
2022-11-23T06:02:10.396Z,99183.23
2022-11-23T06:04:37.130Z,99187.62
2022-11-23T06:07:05.550Z,99190.80
2022-11-23T06:09:54.496Z,99195.45
2022-11-23T06:12:21.647Z,99201.92
2022-11-23T06:14:48.803Z,99206.05
2022-11-23T06:17:17.074Z,99204.37
2022-11-23T06:19:47.250Z,99202.65
2022-11-23T06:22:15.319Z,99211.73
2022-11-23T06:24:52.071Z,99210.00
2022-11-23T06:27:39.057Z,99207.14
2022-11-23T06:30:19.002Z,99213.66
2022-11-23T06:32:46.305Z,99220.02
2022-11-23T06:35:13.399Z,99218.38
2022-11-23T06:37:40.835Z,99218.27
2022-11-23T06:41:08.192Z,99215.29
2022-11-23T06:43:34.997Z,99221.82
2022-11-23T06:46:06.410Z,99222.02
2022-11-23T06:48:34.363Z,99217.50
2022-11-23T06:51:01.638Z,99211.06
2022-11-23T06:53:30.154Z,99212.39
2022-11-23T06:56:00.440Z,99211.84
2022-11-23T06:58:27.774Z,99215.20
2022-11-23T07:00:54.461Z,99202.56
2022-11-23T07:03:24.178Z,99204.89
2022-11-23T07:05:56.241Z,99209.77
2022-11-23T07:08:25.505Z,99204.81
2022-11-23T07:10:53.482Z,99202.72
2022-11-23T07:13:20.241Z,99203.34
2022-11-23T07:15:46.994Z,99207.98
2022-11-23T07:18:13.713Z,99204.83
2022-11-23T07:20:45.864Z,99216.58
2022-11-23T07:23:12.878Z,99223.79
2022-11-23T07:25:40.004Z,99223.21
2022-11-23T07:28:07.519Z,99225.00
2022-11-23T07:30:34.820Z,99218.36
2022-11-23T07:33:05.668Z,99219.23
2022-11-23T07:35:32.991Z,99228.77
2022-11-23T07:37:59.865Z,99237.61
2022-11-23T07:40:27.187Z,99242.23
2022-11-23T07:42:53.970Z,99241.61
2022-11-23T07:45:20.645Z,99240.94
2022-11-23T07:47:47.408Z,99239.62
